Wetterstation Vordersexau
Wetterdaten: Woche 10.10.11 - 16.10.11 (KW41)
Datum Zeit Temp. A. Feuchte A. Luftdruck Regen Wind Richtung Taupunkt Windchill Windben
10.10.2011 00:00 10,4 C 84 % 1020,6 hPa 0,4 l/m 3,2 km/h O-NO 7,8 C 10,4 C 1,8 km/h
10.10.2011 01:00 10,8 C 83 % 1020,1 hPa 0,0 l/m 0,0 km/h NO 8,0 C 10,8 C 0,0 km/h
10.10.2011 02:00 11,1 C 83 % 1019,8 hPa 1,1 l/m 0,0 km/h N-NO 8,3 C 11,1 C 0,0 km/h
10.10.2011 03:00 11,4 C 82 % 1019,8 hPa 0,4 l/m 2,6 km/h NO 8,4 C 11,4 C 1,4 km/h
10.10.2011 04:00 11,8 C 81 % 1019,5 hPa 0,4 l/m 0,0 km/h NO 8,6 C 11,8 C 0,0 km/h
10.10.2011 05:00 11,9 C 80 % 1019,8 hPa 0,0 l/m 0,0 km/h NO 8,6 C 11,9 C 0,0 km/h
10.10.2011 06:00 12,0 C 80 % 1019,6 hPa 0,7 l/m 0,0 km/h N-NO 8,7 C 12,0 C 0,0 km/h
10.10.2011 07:00 12,2 C 79 % 1019,8 hPa 1,8 l/m 0,0 km/h O-SO 8,7 C 12,2 C 0,0 km/h
10.10.2011 08:00 12,5 C 78 % 1020,2 hPa 1,4 l/m 0,0 km/h NO 8,8 C 12,5 C 0,0 km/h
10.10.2011 09:00 13,1 C 77 % 1020,7 hPa 0,7 l/m 0,0 km/h NO 9,2 C 13,1 C 0,0 km/h
10.10.2011 10:00 14,5 C 76 % 1021,1 hPa 0,0 l/m 0,0 km/h SW 10,3 C 14,5 C 0,0 km/h
10.10.2011 11:00 17,4 C 83 % 1021,2 hPa 0,0 l/m 7,1 km/h W-SW 14,5 C 17,1 C 4,0 km/h
10.10.2011 12:00 17,1 C 82 % 1021,3 hPa 0,0 l/m 22,7 km/h SW 14,0 C 11,9 C 12,6 km/h
10.10.2011 13:00 18,3 C 81 % 1021,0 hPa 0,0 l/m 26,6 km/h W 15,0 C 12,8 C 14,8 km/h
10.10.2011 14:00 19,8 C 76 % 1020,3 hPa 0,0 l/m 2,6 km/h SW 15,4 C 19,8 C 1,4 km/h
10.10.2011 15:00 19,3 C 74 % 1020,3 hPa 0,0 l/m 27,9 km/h S-SW 14,5 C 14,0 C 15,5 km/h
10.10.2011 16:00 18,3 C 77 % 1020,2 hPa 0,0 l/m 6,5 km/h W-SW 14,2 C 18,3 C 3,6 km/h
10.10.2011 17:00 17,9 C 76 % 1020,9 hPa 0,0 l/m 13,0 km/h W-SW 13,6 C 15,3 C 7,2 km/h
10.10.2011 18:00 16,9 C 78 % 1021,0 hPa 0,0 l/m 18,8 km/h W-SW 13,0 C 12,5 C 10,4 km/h
10.10.2011 19:00 16,1 C 80 % 1021,6 hPa 0,0 l/m 22,0 km/h S-SW 12,6 C 10,7 C 12,2 km/h
10.10.2011 20:00 14,4 C 82 % 1021,7 hPa 0,0 l/m 0,0 km/h W-SW 11,4 C 14,4 C 0,0 km/h
10.10.2011 21:00 14,5 C 83 % 1021,8 hPa 0,0 l/m 3,9 km/h SW 11,6 C 14,5 C 2,2 km/h
10.10.2011 22:00 15,2 C 84 % 1022,4 hPa 0,0 l/m 20,7 km/h W 12,5 C 9,8 C 11,5 km/h
10.10.2011 23:00 15,1 C 83 % 1022,8 hPa 0,0 l/m 10,4 km/h W-SW 12,2 C 13,1 C 5,8 km/h
11.10.2011 00:00 15,2 C 83 % 1023,2 hPa 0,0 l/m 14,9 km/h W-SW 12,3 C 11,5 C 8,3 km/h
11.10.2011 01:00 14,9 C 83 % 1022,9 hPa 0,0 l/m 18,8 km/h SW 12,0 C 9,9 C 10,4 km/h
11.10.2011 02:00 14,5 C 83 % 1022,8 hPa 0,0 l/m 16,2 km/h W 11,6 C 10,2 C 9,0 km/h
11.10.2011 03:00 12,6 C 84 % 1022,8 hPa 0,0 l/m 0,0 km/h W 10,0 C 12,6 C 0,0 km/h
11.10.2011 04:00 13,0 C 84 % 1022,6 hPa 0,0 l/m 0,0 km/h W-SW 10,4 C 13,0 C 0,0 km/h
11.10.2011 05:00 11,9 C 84 % 1022,6 hPa 0,0 l/m 0,0 km/h NO 9,3 C 11,9 C 0,0 km/h
11.10.2011 06:00 10,9 C 83 % 1022,7 hPa 0,0 l/m 0,0 km/h W-SW 8,1 C 10,9 C 0,0 km/h
11.10.2011 07:00 13,2 C 84 % 1022,6 hPa 0,0 l/m 22,7 km/h W-SW 10,6 C 6,7 C 12,6 km/h
11.10.2011 08:00 13,5 C 82 % 1022,7 hPa 0,0 l/m 25,9 km/h W-SW 10,5 C 6,4 C 14,4 km/h
11.10.2011 09:00 14,9 C 81 % 1023,1 hPa 0,0 l/m 16,8 km/h W-SW 11,7 C 10,5 C 9,4 km/h
11.10.2011 10:00 15,9 C 76 % 1023,0 hPa 0,0 l/m 11,7 km/h SW 11,7 C 13,4 C 6,5 km/h
11.10.2011 11:00 19,9 C 68 % 1022,8 hPa 0,0 l/m 23,3 km/h W-NW 13,8 C 15,5 C 13,0 km/h
11.10.2011 12:00 20,3 C 64 % 1022,3 hPa 0,0 l/m 20,7 km/h W-SW 13,3 C 16,5 C 11,5 km/h
11.10.2011 13:00 19,9 C 67 % 1021,7 hPa 0,0 l/m 20,1 km/h W 13,6 C 16,1 C 11,2 km/h
11.10.2011 14:00 20,4 C 65 % 1020,9 hPa 0,0 l/m 13,6 km/h SW 13,6 C 18,1 C 7,6 km/h
11.10.2011 15:00 20,9 C 64 % 1020,3 hPa 0,0 l/m 21,4 km/h W-SW 13,8 C 17,1 C 11,9 km/h
11.10.2011 16:00 21,4 C 59 % 1020,5 hPa 0,0 l/m 35,0 km/h NW 13,0 C 16,2 C 19,4 km/h
11.10.2011 17:00 19,1 C 64 % 1020,7 hPa 0,0 l/m 12,3 km/h W-SW 12,1 C 16,9 C 6,8 km/h
11.10.2011 18:00 15,5 C 75 % 1020,9 hPa 0,0 l/m 10,4 km/h W-SW 11,1 C 13,5 C 5,8 km/h
11.10.2011 19:00 14,1 C 80 % 1021,4 hPa 0,0 l/m 3,2 km/h W-SW 10,7 C 14,1 C 1,8 km/h
11.10.2011 20:00 13,9 C 80 % 1021,9 hPa 0,0 l/m 19,4 km/h W 10,5 C 8,5 C 10,8 km/h
11.10.2011 21:00 13,8 C 81 % 1022,2 hPa 0,0 l/m 10,4 km/h W-SW 10,6 C 11,6 C 5,8 km/h
11.10.2011 22:00 13,6 C 82 % 1022,6 hPa 0,0 l/m 12,3 km/h W 10,6 C 10,5 C 6,8 km/h
11.10.2011 23:00 13,3 C 82 % 1022,8 hPa 0,0 l/m 2,6 km/h S-SW 10,3 C 13,3 C 1,4 km/h
12.10.2011 00:00 13,3 C 82 % 1022,7 hPa 0,0 l/m 16,2 km/h S 10,3 C 8,7 C 9,0 km/h
12.10.2011 01:00 13,1 C 82 % 1022,4 hPa 0,0 l/m 21,4 km/h SW 10,1 C 6,9 C 11,9 km/h
12.10.2011 02:00 13,4 C 82 % 1022,3 hPa 0,0 l/m 5,8 km/h W 10,4 C 13,4 C 3,2 km/h
12.10.2011 03:00 13,3 C 82 % 1021,8 hPa 0,0 l/m 3,2 km/h W-SW 10,3 C 13,3 C 1,8 km/h
12.10.2011 04:00 13,3 C 82 % 1021,4 hPa 0,0 l/m 4,5 km/h W 10,3 C 13,3 C 2,5 km/h
12.10.2011 05:00 13,2 C 81 % 1020,9 hPa 0,0 l/m 3,9 km/h W-SW 10,0 C 13,2 C 2,2 km/h
12.10.2011 06:00 13,1 C 81 % 1020,9 hPa 0,0 l/m 1,3 km/h W-SW 9,9 C 13,1 C 0,7 km/h
12.10.2011 07:00 13,3 C 82 % 1020,6 hPa 0,0 l/m 20,1 km/h W-NW 10,3 C 7,5 C 11,2 km/h
12.10.2011 08:00 13,4 C 82 % 1021,1 hPa 0,0 l/m 0,0 km/h W-SW 10,4 C 13,4 C 0,0 km/h
12.10.2011 09:00 14,2 C 81 % 1021,4 hPa 0,0 l/m 13,6 km/h W 11,0 C 10,7 C 7,6 km/h
12.10.2011 10:00 14,8 C 79 % 1021,4 hPa 0,0 l/m 15,6 km/h SW 11,2 C 10,8 C 8,6 km/h
12.10.2011 11:00 15,3 C 78 % 1021,4 hPa 0,0 l/m 12,3 km/h S-SW 11,5 C 12,5 C 6,8 km/h
12.10.2011 12:00 16,3 C 74 % 1021,1 hPa 0,0 l/m 16,8 km/h SW 11,7 C 12,2 C 9,4 km/h
12.10.2011 13:00 15,9 C 75 % 1020,9 hPa 0,0 l/m 40,2 km/h W 11,5 C 7,6 C 22,3 km/h
12.10.2011 14:00 16,4 C 74 % 1020,5 hPa 0,0 l/m 22,0 km/h W-SW 11,8 C 11,1 C 12,2 km/h
12.10.2011 15:00 16,5 C 73 % 1020,2 hPa 0,0 l/m 22,7 km/h W-SW 11,6 C 11,1 C 12,6 km/h
12.10.2011 16:00 15,6 C 75 % 1019,9 hPa 0,0 l/m 19,4 km/h SW 11,2 C 10,7 C 10,8 km/h
12.10.2011 17:00 14,9 C 75 % 1019,9 hPa 0,0 l/m 13,6 km/h W-NW 10,5 C 11,6 C 7,6 km/h
12.10.2011 18:00 14,4 C 77 % 1020,2 hPa 0,0 l/m 12,3 km/h S-SW 10,4 C 11,5 C 6,8 km/h
12.10.2011 19:00 13,6 C 81 % 1020,5 hPa 0,0 l/m 0,0 km/h SW 10,4 C 13,6 C 0,0 km/h
12.10.2011 20:00 13,4 C 82 % 1021,1 hPa 0,0 l/m 1,3 km/h W-SW 10,4 C 13,4 C 0,7 km/h
12.10.2011 21:00 13,1 C 83 % 1021,1 hPa 0,0 l/m 0,0 km/h W-SW 10,3 C 13,1 C 0,0 km/h
12.10.2011 22:00 12,8 C 84 % 1021,8 hPa 0,0 l/m 0,0 km/h W-SW 10,2 C 12,8 C 0,0 km/h
12.10.2011 23:00 12,8 C 84 % 1021,6 hPa 0,0 l/m 0,0 km/h W-SW 10,2 C 12,8 C 0,0 km/h
13.10.2011 00:00 12,6 C 84 % 1021,8 hPa 0,0 l/m 0,0 km/h S-SO 10,0 C 12,6 C 0,0 km/h
13.10.2011 01:00 12,6 C 84 % 1021,8 hPa 0,0 l/m 0,0 km/h SO 10,0 C 12,6 C 0,0 km/h
13.10.2011 02:00 12,3 C 84 % 1021,6 hPa 0,0 l/m 0,0 km/h S-SW 9,7 C 12,3 C 0,0 km/h
13.10.2011 03:00 12,4 C 84 % 1021,7 hPa 0,0 l/m 8,4 km/h SW 9,8 C 11,1 C 4,7 km/h
13.10.2011 04:00 12,5 C 84 % 1021,8 hPa 0,0 l/m 0,0 km/h S 9,9 C 12,5 C 0,0 km/h
13.10.2011 05:00 12,0 C 84 % 1021,9 hPa 0,0 l/m 0,0 km/h S 9,4 C 12,0 C 0,0 km/h
13.10.2011 06:00 12,1 C 83 % 1021,8 hPa 0,0 l/m 0,0 km/h S 9,3 C 12,1 C 0,0 km/h
13.10.2011 07:00 12,1 C 83 % 1022,4 hPa 0,0 l/m 0,0 km/h S 9,3 C 12,1 C 0,0 km/h
13.10.2011 08:00 12,1 C 82 % 1023,0 hPa 1,1 l/m 0,0 km/h W 9,1 C 12,1 C 0,0 km/h
13.10.2011 09:00 12,8 C 80 % 1023,4 hPa 0,7 l/m 2,6 km/h SW 9,4 C 12,8 C 1,4 km/h
13.10.2011 10:00 13,1 C 77 % 1024,0 hPa 0,0 l/m 6,5 km/h W 9,2 C 13,1 C 3,6 km/h
13.10.2011 11:00 13,5 C 80 % 1024,2 hPa 0,4 l/m 0,0 km/h W 10,1 C 13,5 C 0,0 km/h
13.10.2011 12:00 13,6 C 82 % 1024,5 hPa 0,0 l/m 0,0 km/h N-NW 10,6 C 13,6 C 0,0 km/h
13.10.2011 13:00 14,4 C 84 % 1024,5 hPa 0,0 l/m 0,0 km/h N-NW 11,7 C 14,4 C 0,0 km/h
13.10.2011 14:00 14,1 C 83 % 1024,5 hPa 0,0 l/m 5,8 km/h NW 11,3 C 14,1 C 3,2 km/h
13.10.2011 15:00 15,1 C 83 % 1024,3 hPa 0,0 l/m 2,6 km/h N-NW 12,2 C 15,1 C 1,4 km/h
13.10.2011 16:00 13,8 C 84 % 1024,5 hPa 0,0 l/m 2,6 km/h N-NW 11,1 C 13,8 C 1,4 km/h
13.10.2011 17:00 13,3 C 84 % 1024,6 hPa 0,0 l/m 0,0 km/h NW 10,7 C 13,3 C 0,0 km/h
13.10.2011 18:00 13,4 C 84 % 1025,0 hPa 0,0 l/m 0,0 km/h N-NO 10,8 C 13,4 C 0,0 km/h
13.10.2011 19:00 11,6 C 84 % 1025,5 hPa 0,0 l/m 0,0 km/h SO 9,0 C 11,6 C 0,0 km/h
13.10.2011 20:00 10,1 C 84 % 1025,6 hPa 0,0 l/m 0,0 km/h SO 7,5 C 10,1 C 0,0 km/h
13.10.2011 21:00 10,1 C 83 % 1026,0 hPa 0,0 l/m 0,0 km/h SO 7,3 C 10,1 C 0,0 km/h
13.10.2011 22:00 9,3 C 83 % 1026,2 hPa 0,0 l/m 0,0 km/h SO 6,6 C 9,3 C 0,0 km/h
13.10.2011 23:00 9,4 C 81 % 1026,4 hPa 0,0 l/m 0,0 km/h SO 6,3 C 9,4 C 0,0 km/h
14.10.2011 00:00 9,9 C 80 % 1026,3 hPa 0,0 l/m 0,0 km/h SO 6,6 C 9,9 C 0,0 km/h
14.10.2011 01:00 9,6 C 83 % 1025,7 hPa 0,0 l/m 6,5 km/h S-SO 6,9 C 9,6 C 3,6 km/h
14.10.2011 02:00 9,2 C 84 % 1025,7 hPa 0,0 l/m 0,0 km/h S-SO 6,6 C 9,2 C 0,0 km/h
14.10.2011 03:00 6,9 C 85 % 1025,4 hPa 0,0 l/m 0,0 km/h NO 4,6 C 6,9 C 0,0 km/h
14.10.2011 04:00 6,3 C 84 % 1025,3 hPa 0,0 l/m 0,0 km/h NO 3,8 C 6,3 C 0,0 km/h
14.10.2011 05:00 5,4 C 83 % 1025,3 hPa 0,0 l/m 0,0 km/h O 2,7 C 5,4 C 0,0 km/h
14.10.2011 06:00 4,5 C 83 % 1025,6 hPa 0,0 l/m 0,0 km/h O-NO 1,9 C 4,5 C 0,0 km/h
14.10.2011 07:00 4,2 C 83 % 1026,1 hPa 0,0 l/m 0,0 km/h SO 1,6 C 4,2 C 0,0 km/h
14.10.2011 08:00 3,8 C 82 % 1026,7 hPa 0,0 l/m 0,0 km/h W-NW 1,0 C 3,8 C 0,0 km/h
14.10.2011 09:00 9,2 C 75 % 1027,0 hPa 0,0 l/m 8,4 km/h SW 5,0 C 7,7 C 4,7 km/h
14.10.2011 10:00 16,6 C 66 % 1027,0 hPa 0,0 l/m 0,0 km/h O-SO 10,2 C 16,6 C 0,0 km/h
14.10.2011 11:00 18,7 C 50 % 1027,1 hPa 0,0 l/m 6,5 km/h N-NO 8,1 C 18,7 C 3,6 km/h
14.10.2011 12:00 19,3 C 45 % 1027,0 hPa 0,0 l/m 0,0 km/h NO 7,1 C 19,3 C 0,0 km/h
14.10.2011 13:00 18,1 C 42 % 1026,6 hPa 0,0 l/m 7,8 km/h NO 5,0 C 17,4 C 4,3 km/h
14.10.2011 14:00 18,9 C 40 % 1026,0 hPa 0,0 l/m 0,0 km/h O 5,0 C 18,9 C 0,0 km/h
14.10.2011 15:00 21,9 C 35 % 1025,6 hPa 0,0 l/m 0,0 km/h O 5,7 C 21,9 C 0,0 km/h
14.10.2011 16:00 23,9 C 32 % 1025,3 hPa 0,0 l/m 3,2 km/h N-NO 6,2 C 23,9 C 1,8 km/h
14.10.2011 17:00 22,6 C 31 % 1025,0 hPa 0,0 l/m 0,0 km/h NO 4,6 C 22,6 C 0,0 km/h
14.10.2011 18:00 14,5 C 43 % 1025,3 hPa 0,0 l/m 0,0 km/h NO 2,1 C 14,5 C 0,0 km/h
14.10.2011 19:00 9,3 C 59 % 1025,7 hPa 0,0 l/m 0,0 km/h NO 1,7 C 9,3 C 0,0 km/h
14.10.2011 20:00 9,5 C 60 % 1025,7 hPa 0,0 l/m 0,0 km/h SO 2,1 C 9,5 C 0,0 km/h
14.10.2011 21:00 5,9 C 72 % 1025,8 hPa 0,0 l/m 0,0 km/h S-SO 1,2 C 5,9 C 0,0 km/h
14.10.2011 22:00 4,1 C 78 % 1026,0 hPa 0,0 l/m 0,0 km/h SO 0,6 C 4,1 C 0,0 km/h
14.10.2011 23:00 3,3 C 81 % 1026,1 hPa 0,0 l/m 0,0 km/h NO 0,4 C 3,3 C 0,0 km/h
15.10.2011 00:00 2,9 C 83 % 1025,9 hPa 0,0 l/m 0,0 km/h NO 0,3 C 2,9 C 0,0 km/h
15.10.2011 01:00 3,4 C 84 % 1025,5 hPa 0,0 l/m 0,0 km/h O 1,0 C 3,4 C 0,0 km/h
15.10.2011 02:00 2,2 C 84 % 1025,4 hPa 0,0 l/m 0,0 km/h N -0,2 C 2,2 C 0,0 km/h
15.10.2011 03:00 2,5 C 84 % 1025,0 hPa 0,0 l/m 0,0 km/h O-SO 0,1 C 2,5 C 0,0 km/h
15.10.2011 04:00 0,9 C 85 % 1024,9 hPa 0,0 l/m 0,0 km/h SO -1,3 C 0,9 C 0,0 km/h
15.10.2011 05:00 0,1 C 85 % 1025,2 hPa 0,0 l/m 0,0 km/h O -2,1 C 0,1 C 0,0 km/h
15.10.2011 06:00 0,1 C 85 % 1025,3 hPa 0,0 l/m 0,0 km/h SO -2,1 C 0,1 C 0,0 km/h
15.10.2011 07:00 -0,6 C 85 % 1025,4 hPa 0,0 l/m 0,0 km/h SO -2,8 C -0,6 C 0,0 km/h
15.10.2011 08:00 -0,5 C 85 % 1025,8 hPa 0,0 l/m 0,0 km/h N-NW -2,7 C -0,5 C 0,0 km/h
15.10.2011 09:00 3,3 C 82 % 1026,3 hPa 0,0 l/m 0,0 km/h N 0,5 C 3,3 C 0,0 km/h
15.10.2011 10:00 8,1 C 76 % 1026,3 hPa 0,0 l/m 0,0 km/h W 4,1 C 8,1 C 0,0 km/h
15.10.2011 11:00 11,9 C 69 % 1026,0 hPa 0,0 l/m 1,9 km/h SW 6,4 C 11,9 C 1,1 km/h
15.10.2011 12:00 14,4 C 59 % 1025,8 hPa 0,0 l/m 0,0 km/h W 6,5 C 14,4 C 0,0 km/h
15.10.2011 13:00 14,1 C 58 % 1025,3 hPa 0,0 l/m 1,3 km/h W 6,0 C 14,1 C 0,7 km/h
15.10.2011 14:00 16,1 C 54 % 1024,6 hPa 0,0 l/m 0,0 km/h N 6,8 C 16,1 C 0,0 km/h
15.10.2011 15:00 18,9 C 48 % 1023,8 hPa 0,0 l/m 0,0 km/h NW 7,6 C 18,9 C 0,0 km/h
15.10.2011 16:00 20,8 C 44 % 1023,4 hPa 0,0 l/m 4,5 km/h W-NW 8,1 C 20,8 C 2,5 km/h
15.10.2011 17:00 19,2 C 43 % 1023,5 hPa 0,0 l/m 3,2 km/h W-NW 6,3 C 19,2 C 1,8 km/h
15.10.2011 18:00 12,1 C 57 % 1023,7 hPa 0,0 l/m 0,0 km/h N 3,8 C 12,1 C 0,0 km/h
15.10.2011 19:00 7,0 C 75 % 1024,0 hPa 0,0 l/m 0,0 km/h O-SO 2,9 C 7,0 C 0,0 km/h
15.10.2011 20:00 5,1 C 80 % 1024,0 hPa 0,0 l/m 0,0 km/h N-NO 1,9 C 5,1 C 0,0 km/h
15.10.2011 21:00 4,4 C 83 % 1023,7 hPa 0,0 l/m 0,0 km/h O-NO 1,8 C 4,4 C 0,0 km/h
15.10.2011 22:00 3,6 C 84 % 1024,1 hPa 0,0 l/m 0,0 km/h O-NO 1,2 C 3,6 C 0,0 km/h
15.10.2011 23:00 2,6 C 85 % 1024,1 hPa 0,0 l/m 0,0 km/h O-SO 0,3 C 2,6 C 0,0 km/h
16.10.2011 00:00 1,9 C 85 % 1024,2 hPa 0,0 l/m 0,0 km/h O-SO -0,3 C 1,9 C 0,0 km/h
16.10.2011 01:00 1,3 C 85 % 1023,9 hPa 0,0 l/m 0,0 km/h O-NO -0,9 C 1,3 C 0,0 km/h
16.10.2011 02:00 1,0 C 85 % 1023,9 hPa 0,0 l/m 0,0 km/h NO -1,2 C 1,0 C 0,0 km/h
16.10.2011 03:00 0,9 C 85 % 1023,4 hPa 0,0 l/m 0,0 km/h O-NO -1,3 C 0,9 C 0,0 km/h
16.10.2011 04:00 0,4 C 85 % 1023,3 hPa 0,0 l/m 0,0 km/h NO -1,8 C 0,4 C 0,0 km/h
16.10.2011 05:00 0,4 C 84 % 1023,3 hPa 0,0 l/m 0,0 km/h NO -2,0 C 0,4 C 0,0 km/h
16.10.2011 06:00 0,6 C 84 % 1023,6 hPa 0,0 l/m 0,0 km/h NO -1,8 C 0,6 C 0,0 km/h
16.10.2011 07:00 0,1 C 84 % 1023,3 hPa 0,0 l/m 0,0 km/h NO -2,3 C 0,1 C 0,0 km/h
16.10.2011 08:00 0,7 C 83 % 1023,8 hPa 0,0 l/m 0,0 km/h NO -1,8 C 0,7 C 0,0 km/h
16.10.2011 09:00 5,8 C 76 % 1024,1 hPa 0,0 l/m 0,0 km/h W-NW 1,9 C 5,8 C 0,0 km/h
16.10.2011 10:00 13,1 C 79 % 1024,1 hPa 0,0 l/m 0,0 km/h W 9,5 C 13,1 C 0,0 km/h
16.10.2011 11:00 15,4 C 61 % 1024,0 hPa 0,0 l/m 0,0 km/h NO 7,9 C 15,4 C 0,0 km/h
16.10.2011 12:00 17,6 C 55 % 1023,8 hPa 0,0 l/m 0,0 km/h SW 8,5 C 17,6 C 0,0 km/h
16.10.2011 13:00 17,5 C 55 % 1023,4 hPa 0,0 l/m 0,0 km/h SO 8,4 C 17,5 C 0,0 km/h
16.10.2011 14:00 19,1 C 55 % 1022,7 hPa 0,0 l/m 0,0 km/h SO 9,8 C 19,1 C 0,0 km/h
16.10.2011 15:00 22,4 C 48 % 1022,0 hPa 0,0 l/m 0,0 km/h W-NW 10,8 C 22,4 C 0,0 km/h
16.10.2011 16:00 25,2 C 43 % 1022,0 hPa 0,0 l/m 0,0 km/h W-SW 11,7 C 25,2 C 0,0 km/h
16.10.2011 17:00 20,6 C 51 % 1021,9 hPa 0,0 l/m 0,0 km/h O-NO 10,1 C 20,6 C 0,0 km/h
16.10.2011 18:00 15,0 C 65 % 1021,8 hPa 0,0 l/m 0,0 km/h O-SO 8,5 C 15,0 C 0,0 km/h
16.10.2011 19:00 9,9 C 79 % 1021,9 hPa 0,0 l/m 0,0 km/h SO 6,4 C 9,9 C 0,0 km/h
16.10.2011 20:00 8,4 C 83 % 1022,2 hPa 0,0 l/m 0,0 km/h O-NO 5,7 C 8,4 C 0,0 km/h
16.10.2011 21:00 7,6 C 84 % 1022,4 hPa 0,0 l/m 0,0 km/h O-NO 5,1 C 7,6 C 0,0 km/h
16.10.2011 22:00 6,6 C 84 % 1022,7 hPa 0,0 l/m 0,0 km/h NO 4,1 C 6,6 C 0,0 km/h
16.10.2011 23:00 6,1 C 84 % 1022,9 hPa 0,0 l/m 0,0 km/h NO 3,6 C 6,1 C 0,0 km/h
Min-Datum _ 15.10.11 14.10.11 10.10.11 - 10.10.11 - 15.10.11 15.10.11 10.10.11
_ Min-Zeit 07:30 17:30 04:30 - 01:30 - 07:30 07:30 01:30
Minimum _ -0,6 C 31 % 1019,5 hPa - 0,0 km/h - -2,8 C -0,6 C 0,0 km/h
Max-Datum _ 16.10.11 14.10.11 14.10.11 10.10.11 12.10.11 - 10.10.11 16.10.11 12.10.11
_ Max-Zeit 16:30 03:30 11:30 07:30 13:30 - 14:30 16:30 13:30
Maximum _ 25,2 C 85 % 1027,1 hPa 1,8 l/m 40,2 km/h
W
- 15,4 C 25,2 C 22,3 km/h
W
Durchschnitt _ 12,1 C 76 % 1023,1 hPa #8,9 l/m 5,1 km/h W-SW 7,6 C 11,1 C 2,8 km/h
www.sexauwetter.de